createdAt,value
2023-01-26T00:02:04.911Z,2.19
2023-01-26T00:07:06.574Z,2.02
2023-01-26T00:12:08.323Z,2.10
2023-01-26T00:17:09.983Z,2.27
2023-01-26T00:22:11.796Z,2.23
2023-01-26T00:27:13.519Z,2.01
2023-01-26T00:32:15.208Z,2.03
2023-01-26T00:37:17.216Z,1.86
2023-01-26T00:42:18.930Z,1.86
2023-01-26T00:47:20.561Z,1.86
2023-01-26T00:52:22.244Z,1.80
2023-01-26T00:57:25.358Z,1.67
2023-01-26T01:02:27.142Z,1.66
2023-01-26T01:07:28.781Z,1.61
2023-01-26T01:12:30.636Z,1.60
2023-01-26T01:17:32.382Z,1.71
2023-01-26T01:22:35.635Z,1.60
2023-01-26T01:27:37.277Z,1.56
2023-01-26T01:32:40.088Z,1.54
2023-01-26T01:37:42.149Z,1.50
2023-01-26T01:42:48.553Z,1.55
2023-01-26T01:47:50.557Z,1.60
2023-01-26T01:52:54.931Z,1.70
2023-01-26T01:58:00.295Z,1.86
2023-01-26T02:03:16.608Z,1.99
2023-01-26T02:08:21.560Z,2.04
2023-01-26T02:13:24.613Z,2.08
2023-01-26T02:18:27.856Z,1.99
2023-01-26T02:23:45.896Z,1.96
2023-01-26T02:28:48.647Z,2.01
2023-01-26T02:33:51.246Z,2.13
2023-01-26T02:39:17.766Z,2.16
2023-01-26T02:44:19.709Z,2.23
2023-01-26T02:49:40.203Z,2.17
2023-01-26T02:55:00.730Z,2.15
2023-01-26T03:00:07.434Z,2.21
2023-01-26T03:05:09.253Z,2.23
2023-01-26T03:10:12.619Z,2.02
2023-01-26T03:15:33.309Z,1.86
2023-01-26T03:20:53.691Z,1.75
2023-01-26T03:26:15.549Z,1.65
2023-01-26T03:31:18.375Z,1.67
2023-01-26T03:36:20.341Z,1.57
2023-01-26T03:41:40.529Z,1.61
2023-01-26T03:47:01.072Z,1.65
2023-01-26T03:52:22.471Z,1.75
2023-01-26T03:57:25.582Z,1.89
2023-01-26T04:02:46.045Z,1.97
2023-01-26T04:08:06.673Z,1.92
2023-01-26T04:13:27.624Z,1.86
2023-01-26T04:18:54.455Z,1.78
2023-01-26T04:23:58.064Z,1.82
2023-01-26T04:29:01.373Z,1.93
2023-01-26T04:34:05.377Z,1.99
2023-01-26T04:39:08.101Z,1.95
2023-01-26T04:44:11.631Z,1.96
2023-01-26T04:49:13.581Z,2.05
2023-01-26T04:54:15.595Z,2.03
2023-01-26T04:59:19.594Z,1.95
2023-01-26T05:04:21.975Z,1.98
2023-01-26T05:09:23.876Z,2.09
2023-01-26T05:14:42.454Z,2.12
2023-01-26T05:19:58.282Z,2.07
2023-01-26T05:25:32.141Z,2.07
2023-01-26T05:30:38.649Z,2.04
2023-01-26T05:35:40.399Z,2.08
2023-01-26T05:40:44.845Z,2.10
2023-01-26T05:45:46.923Z,2.15
2023-01-26T05:50:51.021Z,2.16
2023-01-26T05:55:55.030Z,2.16
2023-01-26T06:01:04.468Z,2.07
2023-01-26T06:06:13.526Z,2.06
2023-01-26T06:11:25.032Z,2.01
2023-01-26T06:16:54.202Z,2.05
2023-01-26T06:21:56.096Z,2.05
2023-01-26T06:26:58.012Z,1.95
2023-01-26T06:32:00.543Z,1.80
2023-01-26T06:37:04.470Z,1.66
2023-01-26T06:42:10.096Z,2.37
2023-01-26T06:47:14.869Z,2.77
2023-01-26T06:52:31.202Z,2.53
2023-01-26T06:57:44.673Z,2.65
2023-01-26T07:03:06.520Z,2.93
2023-01-26T07:08:08.789Z,3.08
2023-01-26T07:13:10.475Z,3.18
2023-01-26T07:18:12.271Z,3.15
2023-01-26T07:23:13.988Z,3.16
2023-01-26T07:28:15.643Z,3.12
2023-01-26T07:33:17.214Z,3.17
2023-01-26T07:38:19.173Z,3.23
2023-01-26T07:43:21.360Z,3.32
2023-01-26T07:48:24.471Z,3.41
2023-01-26T07:53:29.124Z,3.40
2023-01-26T07:58:30.795Z,3.37
2023-01-26T08:03:32.609Z,3.41
2023-01-26T08:08:34.691Z,3.36
2023-01-26T08:13:36.484Z,3.27
2023-01-26T08:18:39.754Z,3.18
2023-01-26T08:23:41.582Z,3.20
2023-01-26T08:28:43.951Z,2.95
2023-01-26T08:33:50.825Z,3.06
2023-01-26T08:38:54.062Z,2.97
2023-01-26T08:43:59.159Z,2.98
2023-01-26T08:49:00.884Z,2.90
2023-01-26T08:54:05.663Z,2.43
2023-01-26T08:59:07.638Z,2.12
2023-01-26T09:04:09.247Z,2.05
2023-01-26T09:09:13.178Z,2.09
2023-01-26T09:14:15.184Z,2.01
2023-01-26T09:19:16.880Z,1.90
2023-01-26T09:24:18.604Z,1.95
2023-01-26T09:29:20.436Z,1.99
2023-01-26T09:34:22.188Z,2.04
2023-01-26T09:39:23.859Z,2.06
2023-01-26T09:44:30.603Z,2.05
2023-01-26T09:49:50.847Z,2.09
2023-01-26T09:54:59.657Z,2.01
2023-01-26T10:00:09.556Z,2.06
2023-01-26T10:05:20.280Z,2.21
2023-01-26T10:10:28.645Z,2.25
2023-01-26T10:15:39.139Z,2.12
2023-01-26T10:20:45.456Z,2.04
2023-01-26T10:25:47.950Z,1.98
2023-01-26T10:30:51.330Z,2.02
2023-01-26T10:35:53.762Z,1.98
2023-01-26T10:40:55.917Z,2.10
2023-01-26T10:45:57.608Z,2.19
2023-01-26T10:51:16.623Z,2.08
2023-01-26T10:56:18.450Z,2.04
2023-01-26T11:01:23.091Z,2.00
2023-01-26T11:06:28.990Z,1.89
2023-01-26T11:11:30.654Z,1.90
2023-01-26T11:16:32.637Z,1.81
2023-01-26T11:21:39.114Z,1.78
2023-01-26T11:26:43.699Z,1.83
2023-01-26T11:32:06.566Z,1.85
2023-01-26T11:37:30.463Z,1.96
2023-01-26T11:42:44.136Z,1.94
2023-01-26T11:48:12.321Z,1.98
2023-01-26T11:53:35.299Z,2.02
2023-01-26T11:58:41.008Z,2.08
2023-01-26T12:03:52.801Z,1.92
2023-01-26T12:09:00.039Z,1.77
2023-01-26T12:14:50.531Z,1.68
2023-01-26T12:20:05.805Z,1.68
2023-01-26T12:25:40.512Z,1.72
2023-01-26T12:31:01.310Z,1.76
2023-01-26T12:36:12.693Z,1.82
2023-01-26T12:41:33.468Z,1.98
2023-01-26T12:46:39.118Z,2.04
2023-01-26T12:51:48.050Z,2.01
2023-01-26T12:56:56.699Z,2.07
2023-01-26T13:01:58.770Z,2.01
2023-01-26T13:07:28.206Z,1.95
2023-01-26T13:12:57.453Z,2.08
2023-01-26T13:18:01.792Z,2.16
2023-01-26T13:23:07.619Z,2.18
2023-01-26T13:28:13.133Z,2.31
2023-01-26T13:33:22.841Z,2.38
2023-01-26T13:38:36.867Z,2.46
2023-01-26T13:43:51.493Z,2.52
2023-01-26T13:48:55.181Z,2.60
2023-01-26T13:54:11.707Z,2.56
2023-01-26T13:59:19.474Z,2.47
2023-01-26T14:04:23.720Z,2.48
2023-01-26T14:09:31.599Z,2.46
2023-01-26T14:14:36.293Z,2.49
2023-01-26T14:19:42.247Z,2.40
2023-01-26T14:24:48.482Z,2.18
2023-01-26T14:29:50.215Z,2.15
2023-01-26T14:34:57.642Z,2.01
2023-01-26T14:40:21.454Z,2.02
2023-01-26T14:45:31.187Z,2.09
2023-01-26T14:50:33.880Z,2.17
2023-01-26T14:55:36.369Z,2.27
2023-01-26T15:00:38.671Z,2.19
2023-01-26T15:05:43.411Z,2.24
2023-01-26T15:11:19.533Z,2.26
2023-01-26T15:16:45.573Z,2.29
2023-01-26T15:21:47.512Z,2.30
2023-01-26T15:26:51.370Z,2.40
2023-01-26T15:31:56.005Z,2.42
2023-01-26T15:36:58.748Z,2.35
2023-01-26T15:42:01.631Z,2.25
2023-01-26T15:47:03.437Z,2.17
2023-01-26T15:52:37.775Z,2.19
2023-01-26T15:57:39.482Z,2.18
2023-01-26T16:02:41.445Z,2.17
2023-01-26T16:07:43.534Z,2.21
2023-01-26T16:12:48.498Z,2.21
2023-01-26T16:17:50.153Z,2.16
2023-01-26T16:22:51.754Z,2.05
2023-01-26T16:27:54.918Z,2.03
2023-01-26T16:32:56.794Z,2.11
2023-01-26T16:37:58.440Z,2.16
2023-01-26T16:43:01.732Z,2.14
2023-01-26T16:48:12.503Z,2.14
2023-01-26T16:53:26.515Z,2.15
2023-01-26T16:58:30.489Z,2.18
2023-01-26T17:03:32.894Z,2.28
2023-01-26T17:08:34.523Z,2.32
2023-01-26T17:13:36.629Z,2.36
2023-01-26T17:18:38.732Z,2.41
2023-01-26T17:23:44.285Z,2.41
2023-01-26T17:28:47.325Z,2.41
2023-01-26T17:33:50.868Z,2.44
2023-01-26T17:38:53.095Z,2.40
2023-01-26T17:43:54.840Z,2.42
2023-01-26T17:48:56.599Z,2.48
2023-01-26T17:53:58.766Z,2.51
2023-01-26T17:59:00.563Z,2.52
2023-01-26T18:04:02.619Z,2.49
2023-01-26T18:09:05.282Z,2.41
2023-01-26T18:14:07.327Z,2.40
2023-01-26T18:19:09.030Z,2.39
2023-01-26T18:24:10.785Z,2.31
2023-01-26T18:29:12.871Z,2.39
2023-01-26T18:34:15.708Z,2.39
2023-01-26T18:39:17.480Z,2.38
2023-01-26T18:44:19.298Z,2.27
2023-01-26T18:49:21.447Z,2.17
2023-01-26T18:54:24.359Z,1.90
2023-01-26T18:59:26.109Z,1.69
2023-01-26T19:04:27.826Z,1.69
2023-01-26T19:09:35.834Z,1.65
2023-01-26T19:14:37.530Z,1.65
2023-01-26T19:19:41.024Z,1.59
2023-01-26T19:24:43.053Z,1.62
2023-01-26T19:29:44.722Z,1.62
2023-01-26T19:34:46.385Z,1.62
2023-01-26T19:39:47.989Z,1.65
2023-01-26T19:44:49.801Z,1.74
2023-01-26T19:49:51.429Z,1.74
2023-01-26T19:54:53.094Z,1.69
2023-01-26T19:59:55.004Z,1.67
2023-01-26T20:04:56.746Z,1.59
2023-01-26T20:09:58.544Z,1.64
2023-01-26T20:15:00.794Z,1.71
2023-01-26T20:20:03.288Z,1.69
2023-01-26T20:25:06.392Z,1.61
2023-01-26T20:30:08.828Z,1.65
2023-01-26T20:35:14.207Z,1.61
2023-01-26T20:40:16.025Z,1.61
2023-01-26T20:45:18.427Z,1.50
2023-01-26T20:50:20.543Z,1.47
2023-01-26T20:55:22.176Z,1.59
2023-01-26T21:00:23.881Z,1.64
2023-01-26T21:05:25.723Z,1.54
2023-01-26T21:10:27.466Z,1.42
2023-01-26T21:15:29.630Z,1.34
2023-01-26T21:20:31.483Z,1.28
2023-01-26T21:25:33.163Z,1.23
2023-01-26T21:30:34.814Z,1.22
2023-01-26T21:35:36.453Z,1.20
2023-01-26T21:40:38.103Z,1.23
2023-01-26T21:45:54.988Z,1.23
2023-01-26T21:51:18.458Z,1.28
2023-01-26T21:56:20.123Z,1.31
2023-01-26T22:01:22.853Z,1.30
2023-01-26T22:06:25.797Z,1.20
2023-01-26T22:11:28.291Z,1.14
2023-01-26T22:16:30.317Z,1.11
2023-01-26T22:21:32.596Z,1.07
2023-01-26T22:26:34.325Z,0.99
2023-01-26T22:31:36.038Z,0.97
2023-01-26T22:36:37.964Z,0.96
2023-01-26T22:41:40.093Z,0.95
2023-01-26T22:46:41.803Z,0.99
2023-01-26T22:51:43.416Z,0.97
2023-01-26T22:56:45.293Z,1.01
2023-01-26T23:01:47.001Z,0.98
2023-01-26T23:06:48.769Z,1.00
2023-01-26T23:11:50.448Z,1.02
2023-01-26T23:16:52.145Z,1.05
2023-01-26T23:21:54.074Z,1.00
2023-01-26T23:26:55.768Z,0.93
2023-01-26T23:31:57.458Z,1.01
2023-01-26T23:36:59.132Z,1.03
2023-01-26T23:42:00.779Z,1.08
2023-01-26T23:47:02.488Z,1.06
2023-01-26T23:52:04.409Z,1.09
2023-01-26T23:57:06.090Z,1.06
